createdAt,value
2019-01-25T00:01:18.057Z,74.77
2019-01-25T00:04:23.921Z,75.58
2019-01-25T00:07:29.685Z,75.79
2019-01-25T00:10:35.671Z,75.90
2019-01-25T00:13:41.427Z,76.04
2019-01-25T00:16:47.217Z,77.47
2019-01-25T00:19:52.982Z,76.74
2019-01-25T00:22:58.854Z,76.33
2019-01-25T00:26:05.421Z,74.92
2019-01-25T00:29:11.187Z,74.57
2019-01-25T00:32:16.949Z,74.34
2019-01-25T00:35:22.822Z,74.83
2019-01-25T00:38:28.597Z,74.81
2019-01-25T00:41:34.355Z,74.30
2019-01-25T00:44:40.117Z,75.59
2019-01-25T00:47:46.009Z,74.49
2019-01-25T00:50:51.883Z,74.03
2019-01-25T00:53:57.642Z,73.32
2019-01-25T00:57:03.395Z,73.19
2019-01-25T01:00:16.419Z,73.05
2019-01-25T01:03:22.320Z,74.14
2019-01-25T01:06:28.179Z,73.70
2019-01-25T01:09:33.931Z,73.75
2019-01-25T01:12:39.932Z,72.03
2019-01-25T01:15:45.920Z,71.57
2019-01-25T01:18:51.702Z,70.21
2019-01-25T01:21:57.451Z,70.08
2019-01-25T01:25:03.318Z,71.46
2019-01-25T01:28:09.208Z,70.81
2019-01-25T01:31:14.956Z,71.32
2019-01-25T01:34:20.723Z,72.71
2019-01-25T01:37:26.524Z,73.43
2019-01-25T01:40:32.295Z,73.51
2019-01-25T01:43:38.072Z,73.57
2019-01-25T01:46:43.836Z,73.49
2019-01-25T01:49:50.597Z,73.35
2019-01-25T01:52:56.346Z,75.00
2019-01-25T01:56:02.112Z,74.40
2019-01-25T01:59:07.890Z,75.29
2019-01-25T02:02:13.613Z,74.85
2019-01-25T02:05:19.685Z,76.69
2019-01-25T02:08:25.538Z,76.06
2019-01-25T02:11:31.285Z,78.24
2019-01-25T02:14:37.047Z,78.21
2019-01-25T02:17:42.917Z,77.27
2019-01-25T02:20:48.766Z,77.91
2019-01-25T02:23:54.617Z,78.17
2019-01-25T02:27:00.388Z,77.64
2019-01-25T02:30:09.523Z,78.17
2019-01-25T02:33:15.290Z,77.37
2019-01-25T02:36:21.053Z,76.78
2019-01-25T02:39:26.919Z,76.56
2019-01-25T02:42:33.301Z,77.90
2019-01-25T02:45:39.119Z,78.27
2019-01-25T02:48:44.995Z,78.37
2019-01-25T02:51:50.780Z,78.90
2019-01-25T02:54:56.537Z,78.55
2019-01-25T02:58:02.285Z,77.73
2019-01-25T03:01:08.260Z,79.12
2019-01-25T03:04:14.119Z,78.03
2019-01-25T03:07:19.977Z,77.58
2019-01-25T03:10:29.231Z,77.32
2019-01-25T03:13:33.326Z,78.01
2019-01-25T03:16:39.112Z,77.76
2019-01-25T03:19:44.864Z,78.23
2019-01-25T03:22:50.759Z,79.38
2019-01-25T03:25:56.504Z,79.85
2019-01-25T03:29:02.256Z,79.45
2019-01-25T03:32:08.108Z,78.29
2019-01-25T03:35:14.805Z,79.62
2019-01-25T03:38:20.584Z,78.57
2019-01-25T03:41:26.455Z,77.88
2019-01-25T03:44:32.209Z,78.11
2019-01-25T03:47:38.069Z,78.02
2019-01-25T03:50:43.814Z,78.68
2019-01-25T03:53:49.683Z,77.80
2019-01-25T03:56:55.438Z,77.86
2019-01-25T04:00:01.209Z,77.00
2019-01-25T04:03:07.084Z,76.55
2019-01-25T04:06:12.859Z,76.30
2019-01-25T04:09:18.727Z,77.14
2019-01-25T04:12:24.483Z,76.18
2019-01-25T04:15:32.742Z,76.75
2019-01-25T04:18:38.617Z,75.86
2019-01-25T04:21:44.394Z,77.18
2019-01-25T04:24:51.183Z,77.82
2019-01-25T04:27:56.946Z,78.26
2019-01-25T04:31:02.726Z,77.96
2019-01-25T04:34:08.570Z,78.26
2019-01-25T04:37:14.454Z,78.09
2019-01-25T04:40:20.531Z,78.18
2019-01-25T04:43:26.274Z,77.39
2019-01-25T04:46:32.116Z,78.37
2019-01-25T04:49:37.869Z,78.64
2019-01-25T04:52:43.631Z,79.53
2019-01-25T04:55:49.400Z,81.16
2019-01-25T04:58:55.214Z,79.40
2019-01-25T05:02:01.194Z,78.52
2019-01-25T05:05:07.775Z,78.65
2019-01-25T05:08:18.768Z,78.61
2019-01-25T05:11:24.546Z,79.29
2019-01-25T05:14:34.093Z,79.40
2019-01-25T05:17:39.794Z,80.84
2019-01-25T05:20:46.783Z,80.27
2019-01-25T05:23:52.745Z,80.20
2019-01-25T05:26:59.965Z,80.14
2019-01-25T05:30:08.779Z,79.76
2019-01-25T05:33:14.556Z,79.47
2019-01-25T05:36:20.416Z,80.07
2019-01-25T05:39:26.200Z,79.65
2019-01-25T05:42:32.045Z,80.18
2019-01-25T05:45:40.795Z,80.98
2019-01-25T05:48:46.671Z,79.09
2019-01-25T05:51:52.615Z,78.93
2019-01-25T05:54:58.378Z,79.31
2019-01-25T05:58:04.953Z,80.63
2019-01-25T06:01:10.850Z,80.71
2019-01-25T06:04:16.913Z,79.43
2019-01-25T06:07:28.088Z,78.32
2019-01-25T06:10:38.314Z,80.98
2019-01-25T06:13:45.254Z,80.87
2019-01-25T06:16:51.254Z,80.16
2019-01-25T06:20:09.604Z,81.06
2019-01-25T06:23:15.372Z,80.69
2019-01-25T06:26:21.142Z,80.69
2019-01-25T06:29:31.872Z,80.28
2019-01-25T06:32:37.759Z,81.07
2019-01-25T06:35:43.769Z,81.04
2019-01-25T06:38:49.535Z,81.20
2019-01-25T06:41:55.289Z,81.08
2019-01-25T06:45:01.117Z,81.01
2019-01-25T06:48:07.493Z,80.76
2019-01-25T06:51:13.686Z,81.15
2019-01-25T06:54:19.462Z,81.38
2019-01-25T06:57:35.043Z,81.54
2019-01-25T07:00:44.987Z,82.29
2019-01-25T07:03:50.866Z,82.53
2019-01-25T07:06:56.695Z,82.00
2019-01-25T07:10:02.564Z,82.17
2019-01-25T07:13:08.325Z,81.89
2019-01-25T07:16:14.190Z,81.86
2019-01-25T07:19:19.960Z,82.14
2019-01-25T07:22:25.773Z,81.25
2019-01-25T07:25:31.535Z,81.60
2019-01-25T07:28:37.405Z,81.70
2019-01-25T07:31:43.188Z,82.03
2019-01-25T07:34:48.957Z,81.79
2019-01-25T07:37:54.818Z,81.49
2019-01-25T07:41:00.648Z,81.33
2019-01-25T07:44:06.466Z,80.71
2019-01-25T07:47:12.231Z,80.47
2019-01-25T07:50:18.207Z,81.41
2019-01-25T07:53:24.177Z,80.76
2019-01-25T07:56:30.858Z,81.03
2019-01-25T07:59:36.628Z,80.48
2019-01-25T08:02:43.424Z,80.28
2019-01-25T08:05:49.281Z,80.54
2019-01-25T08:08:55.147Z,79.22
2019-01-25T08:12:07.226Z,79.89
2019-01-25T08:15:11.106Z,79.30
2019-01-25T08:18:16.877Z,79.26
2019-01-25T08:21:22.609Z,81.43
2019-01-25T08:24:28.380Z,81.38
2019-01-25T08:27:34.214Z,81.13
2019-01-25T08:30:40.210Z,81.34
2019-01-25T08:33:47.029Z,80.49
2019-01-25T08:36:52.887Z,81.22
2019-01-25T08:39:58.665Z,80.24
2019-01-25T08:43:04.501Z,80.27
2019-01-25T08:46:10.393Z,80.91
2019-01-25T08:49:16.273Z,81.00
2019-01-25T08:52:22.977Z,81.06
2019-01-25T08:55:28.718Z,80.59
2019-01-25T08:58:35.882Z,80.77
2019-01-25T09:01:41.725Z,80.63
2019-01-25T09:04:47.585Z,80.24
2019-01-25T09:07:53.318Z,80.89
2019-01-25T09:10:59.076Z,80.14
2019-01-25T09:14:04.841Z,79.55
2019-01-25T09:17:10.646Z,79.66
2019-01-25T09:20:18.858Z,80.13
2019-01-25T09:23:24.626Z,79.77
2019-01-25T09:26:30.504Z,79.92
2019-01-25T09:29:36.278Z,79.51
2019-01-25T09:32:42.040Z,79.29
2019-01-25T09:35:47.817Z,79.39
2019-01-25T09:38:53.648Z,79.05
2019-01-25T09:41:59.462Z,79.05
2019-01-25T09:45:06.117Z,79.29
2019-01-25T09:48:11.877Z,79.25
2019-01-25T09:51:17.765Z,79.23
2019-01-25T09:54:23.554Z,79.18
2019-01-25T09:57:29.317Z,78.85
2019-01-25T10:00:41.727Z,79.57
2019-01-25T10:03:47.482Z,79.02
2019-01-25T10:06:53.261Z,79.54
2019-01-25T10:09:59.227Z,79.41
2019-01-25T10:13:05.213Z,79.01
2019-01-25T10:16:11.106Z,79.35
2019-01-25T10:19:16.916Z,79.15
2019-01-25T10:22:22.766Z,79.40
2019-01-25T10:25:28.615Z,79.06
2019-01-25T10:28:34.417Z,79.08
2019-01-25T10:31:40.388Z,79.06
2019-01-25T10:34:46.109Z,79.22
2019-01-25T10:37:52.512Z,78.63
2019-01-25T10:40:58.417Z,78.93
2019-01-25T10:44:04.695Z,78.55
2019-01-25T10:47:10.497Z,78.34
2019-01-25T10:50:16.533Z,78.02
2019-01-25T10:53:22.269Z,77.61
2019-01-25T10:56:28.060Z,77.31
2019-01-25T10:59:34.051Z,77.16
2019-01-25T11:02:39.840Z,76.39
2019-01-25T11:05:45.744Z,75.85
2019-01-25T11:08:52.933Z,75.88
2019-01-25T11:11:59.022Z,75.94
2019-01-25T11:15:05.802Z,75.46
2019-01-25T11:18:11.701Z,75.25
2019-01-25T11:21:17.475Z,74.92
2019-01-25T11:24:23.261Z,75.88
2019-01-25T11:27:29.418Z,75.97
2019-01-25T11:30:35.534Z,75.65
2019-01-25T11:33:41.298Z,75.39
2019-01-25T11:36:47.081Z,75.57
2019-01-25T11:39:52.928Z,75.76
2019-01-25T11:42:58.895Z,75.38
2019-01-25T11:46:05.064Z,75.84
2019-01-25T11:49:10.831Z,76.67
2019-01-25T11:52:16.626Z,76.54
2019-01-25T11:55:22.439Z,75.78
2019-01-25T11:58:28.259Z,75.90
2019-01-25T12:01:34.168Z,76.03
2019-01-25T12:04:39.904Z,76.65
2019-01-25T12:07:45.721Z,76.95
2019-01-25T12:10:51.699Z,77.41
2019-01-25T12:13:57.501Z,76.80
2019-01-25T12:17:03.404Z,76.74
2019-01-25T12:20:12.194Z,76.56
2019-01-25T12:23:17.968Z,76.69
2019-01-25T12:26:23.900Z,76.79
2019-01-25T12:29:29.777Z,76.94
2019-01-25T12:32:35.554Z,77.58
2019-01-25T12:35:45.447Z,77.53
2019-01-25T12:38:51.341Z,77.16
2019-01-25T12:41:57.250Z,77.35
2019-01-25T12:45:02.992Z,77.29
2019-01-25T12:48:09.008Z,77.53
2019-01-25T12:51:28.017Z,77.99
2019-01-25T12:54:33.939Z,77.84
2019-01-25T12:57:39.780Z,77.92
2019-01-25T13:00:45.602Z,77.44
2019-01-25T13:03:51.486Z,76.94
2019-01-25T13:06:57.302Z,76.64
2019-01-25T13:10:03.099Z,77.36
2019-01-25T13:13:08.891Z,77.98
2019-01-25T13:16:14.703Z,78.20
2019-01-25T13:19:20.481Z,78.20
2019-01-25T13:22:26.253Z,77.83
2019-01-25T13:25:32.045Z,77.82
2019-01-25T13:28:41.711Z,77.98
2019-01-25T13:31:45.342Z,77.33
2019-01-25T13:34:52.175Z,77.20
2019-01-25T13:37:57.960Z,77.25
2019-01-25T13:41:04.934Z,77.29
2019-01-25T13:44:10.760Z,76.86
2019-01-25T13:47:16.564Z,76.79
2019-01-25T13:50:24.411Z,76.18
2019-01-25T13:53:30.206Z,76.19
2019-01-25T13:56:36.021Z,76.58
2019-01-25T13:59:41.776Z,76.85
2019-01-25T14:02:48.647Z,76.79
2019-01-25T14:05:54.529Z,76.80
2019-01-25T14:09:00.324Z,76.94
2019-01-25T14:12:06.492Z,76.84
2019-01-25T14:15:12.669Z,77.12
2019-01-25T14:18:18.485Z,77.18
2019-01-25T14:21:24.364Z,76.65
2019-01-25T14:24:30.129Z,77.63
2019-01-25T14:27:35.914Z,78.27
2019-01-25T14:30:43.566Z,79.11
2019-01-25T14:33:49.551Z,79.62
2019-01-25T14:36:55.377Z,79.63
2019-01-25T14:40:01.119Z,80.27
2019-01-25T14:43:07.167Z,80.99
2019-01-25T14:46:12.917Z,80.71
2019-01-25T14:49:18.693Z,80.88
2019-01-25T14:52:24.545Z,81.08
2019-01-25T14:55:30.293Z,81.75
2019-01-25T14:58:36.249Z,81.16
2019-01-25T15:01:42.100Z,81.01
2019-01-25T15:04:47.862Z,81.66
2019-01-25T15:07:54.844Z,81.82
2019-01-25T15:11:00.711Z,82.01
2019-01-25T15:14:07.128Z,81.97
2019-01-25T15:17:12.896Z,81.75
2019-01-25T15:20:20.906Z,81.77
2019-01-25T15:23:26.668Z,81.72
2019-01-25T15:26:32.427Z,82.28
2019-01-25T15:29:38.196Z,82.47
2019-01-25T15:32:44.229Z,82.64
2019-01-25T15:35:49.981Z,82.38
2019-01-25T15:38:55.738Z,82.22
2019-01-25T15:42:01.475Z,82.33
2019-01-25T15:45:08.970Z,81.97
2019-01-25T15:48:14.724Z,82.17
2019-01-25T15:51:20.484Z,82.18
2019-01-25T15:54:26.257Z,82.18
2019-01-25T15:57:32.010Z,82.86
2019-01-25T16:00:37.861Z,82.32
2019-01-25T16:03:43.737Z,82.40
2019-01-25T16:06:49.487Z,83.06
2019-01-25T16:09:55.354Z,82.43
2019-01-25T16:13:01.228Z,82.79
2019-01-25T16:16:07.225Z,82.62
2019-01-25T16:19:13.008Z,83.21
2019-01-25T16:22:18.768Z,82.56
2019-01-25T16:25:30.265Z,82.68
2019-01-25T16:28:36.047Z,82.92
2019-01-25T16:31:41.825Z,82.98
2019-01-25T16:34:47.603Z,83.02
2019-01-25T16:37:53.379Z,82.92
2019-01-25T16:40:59.165Z,83.07
2019-01-25T16:44:05.040Z,83.05
2019-01-25T16:47:10.785Z,82.85
2019-01-25T16:50:23.587Z,82.65
2019-01-25T16:53:24.866Z,82.97
2019-01-25T16:56:30.719Z,83.11
2019-01-25T16:59:36.532Z,83.31
2019-01-25T17:02:42.443Z,83.18
2019-01-25T17:05:48.429Z,82.95
2019-01-25T17:08:54.191Z,83.33
2019-01-25T17:11:59.956Z,83.11
2019-01-25T17:15:06.980Z,83.12
2019-01-25T17:18:13.266Z,83.38
2019-01-25T17:21:19.135Z,83.29
2019-01-25T17:24:24.902Z,83.29
2019-01-25T17:27:30.711Z,83.67
2019-01-25T17:30:37.399Z,83.14
2019-01-25T17:33:43.170Z,83.36
2019-01-25T17:36:48.939Z,82.78
2019-01-25T17:39:54.824Z,83.25
2019-01-25T17:43:00.580Z,82.82
2019-01-25T17:46:06.577Z,83.22
2019-01-25T17:49:12.429Z,82.66
2019-01-25T17:52:18.193Z,82.98
2019-01-25T17:55:24.052Z,82.91
2019-01-25T17:58:29.911Z,83.00
2019-01-25T18:01:35.893Z,83.01
2019-01-25T18:04:41.673Z,83.03
2019-01-25T18:07:47.458Z,83.04
2019-01-25T18:10:53.315Z,82.85
2019-01-25T18:13:59.059Z,82.99
2019-01-25T18:17:04.928Z,83.14
2019-01-25T18:20:12.774Z,82.82
2019-01-25T18:23:18.674Z,82.99
2019-01-25T18:26:26.227Z,83.11
2019-01-25T18:29:51.726Z,83.76
2019-01-25T18:32:57.644Z,83.43
2019-01-25T18:36:03.571Z,83.07
2019-01-25T18:39:10.419Z,82.99
2019-01-25T18:42:16.262Z,83.12
2019-01-25T18:45:22.201Z,83.08
2019-01-25T18:48:28.066Z,82.69
2019-01-25T18:51:33.865Z,82.60
2019-01-25T18:54:39.628Z,82.65
2019-01-25T18:57:45.398Z,82.27
2019-01-25T19:00:51.155Z,82.76
2019-01-25T19:03:56.936Z,83.11
2019-01-25T19:07:02.713Z,82.74
2019-01-25T19:10:11.719Z,82.93
2019-01-25T19:13:17.602Z,82.73
2019-01-25T19:16:23.343Z,82.84
2019-01-25T19:19:29.097Z,82.33
2019-01-25T19:22:34.938Z,82.23
2019-01-25T19:25:40.693Z,82.25
2019-01-25T19:28:46.454Z,82.67
2019-01-25T19:31:52.344Z,82.70
2019-01-25T19:34:58.186Z,82.71
2019-01-25T19:38:04.141Z,81.75
2019-01-25T19:41:10.019Z,82.33
2019-01-25T19:44:15.832Z,82.63
2019-01-25T19:47:21.731Z,82.32
2019-01-25T19:50:27.716Z,82.19
2019-01-25T19:53:33.970Z,81.87
2019-01-25T19:56:39.842Z,81.74
2019-01-25T19:59:45.634Z,81.64
2019-01-25T20:02:51.532Z,82.22
2019-01-25T20:05:57.431Z,82.04
2019-01-25T20:09:04.069Z,82.14
2019-01-25T20:12:11.573Z,81.78
2019-01-25T20:15:19.563Z,81.90
2019-01-25T20:18:25.465Z,82.35
2019-01-25T20:21:31.231Z,82.06
2019-01-25T20:24:36.997Z,81.77
2019-01-25T20:27:42.865Z,81.88
2019-01-25T20:30:50.029Z,82.10
2019-01-25T20:33:55.779Z,81.84
2019-01-25T20:37:01.654Z,82.26
2019-01-25T20:40:10.411Z,81.77
2019-01-25T20:43:16.272Z,81.71
2019-01-25T20:46:22.030Z,81.09
2019-01-25T20:49:28.058Z,80.89
2019-01-25T20:52:33.860Z,81.35
2019-01-25T20:55:39.703Z,81.51
2019-01-25T20:58:45.441Z,80.75
2019-01-25T21:01:51.278Z,81.09
2019-01-25T21:04:57.039Z,81.05
2019-01-25T21:08:02.906Z,81.16
2019-01-25T21:11:08.759Z,81.01
2019-01-25T21:14:14.661Z,80.52
2019-01-25T21:17:20.585Z,80.69
2019-01-25T21:20:46.635Z,80.53
2019-01-25T21:23:52.509Z,80.61
2019-01-25T21:26:58.367Z,80.19
2019-01-25T21:30:05.544Z,80.94
2019-01-25T21:33:11.559Z,80.96
2019-01-25T21:36:17.313Z,80.99
2019-01-25T21:39:23.189Z,80.93
2019-01-25T21:42:28.990Z,81.02
2019-01-25T21:45:43.030Z,80.95
2019-01-25T21:48:44.186Z,80.68
2019-01-25T21:51:49.936Z,80.17
2019-01-25T21:54:55.701Z,80.15
2019-01-25T21:58:05.522Z,80.68
2019-01-25T22:01:09.045Z,79.64
2019-01-25T22:04:14.787Z,80.15
2019-01-25T22:07:20.772Z,80.22
2019-01-25T22:10:33.283Z,80.37
2019-01-25T22:13:39.282Z,80.68
2019-01-25T22:16:45.132Z,80.91
2019-01-25T22:19:52.105Z,80.91
2019-01-25T22:22:58.276Z,81.21
2019-01-25T22:26:04.141Z,80.32
2019-01-25T22:29:10.014Z,80.29
2019-01-25T22:32:15.891Z,80.38
2019-01-25T22:35:21.882Z,80.40
2019-01-25T22:38:27.646Z,79.94
2019-01-25T22:41:33.407Z,79.79
2019-01-25T22:44:39.166Z,79.46
2019-01-25T22:47:45.019Z,79.39
2019-01-25T22:50:50.775Z,79.55
2019-01-25T22:53:56.549Z,79.77
2019-01-25T22:57:02.297Z,79.59
2019-01-25T23:00:18.886Z,79.20
2019-01-25T23:04:16.206Z,79.48
2019-01-25T23:07:28.175Z,79.35
2019-01-25T23:10:33.967Z,78.88
2019-01-25T23:13:39.717Z,79.64
2019-01-25T23:16:45.473Z,79.36
2019-01-25T23:19:51.211Z,79.40
2019-01-25T23:22:57.079Z,78.80
2019-01-25T23:26:02.934Z,79.38
2019-01-25T23:29:09.888Z,79.49
2019-01-25T23:32:15.841Z,79.48
2019-01-25T23:35:21.700Z,79.23
2019-01-25T23:38:27.434Z,79.30
2019-01-25T23:41:34.292Z,79.96
2019-01-25T23:44:40.054Z,79.73
2019-01-25T23:47:45.809Z,79.85
2019-01-25T23:50:51.561Z,78.93
2019-01-25T23:53:57.299Z,79.68
2019-01-25T23:57:03.063Z,79.46
